createdAt,value
2024-02-26T06:14:45.835Z,100.00
2024-02-26T06:17:58.725Z,100.00
2024-02-26T06:21:14.225Z,100.00
2024-02-26T06:24:26.969Z,100.00
2024-02-26T06:27:39.630Z,100.00
2024-02-26T06:30:53.599Z,100.00
2024-02-26T06:34:06.269Z,100.00
2024-02-26T06:37:19.207Z,100.00
2024-02-26T06:40:31.679Z,100.00
2024-02-26T06:43:44.370Z,100.00
2024-02-26T06:46:57.782Z,100.00
2024-02-26T06:50:12.527Z,100.00
2024-02-26T06:53:25.296Z,100.00
2024-02-26T06:56:38.008Z,100.00
2024-02-26T06:59:50.812Z,100.00
2024-02-26T07:03:03.642Z,100.00
2024-02-26T07:06:16.324Z,100.00
2024-02-26T07:09:29.170Z,100.00
2024-02-26T07:12:41.695Z,100.00
2024-02-26T07:15:54.442Z,100.00
2024-02-26T07:19:06.984Z,100.00
2024-02-26T07:22:19.757Z,100.00
2024-02-26T07:25:33.232Z,100.00
2024-02-26T07:28:46.005Z,100.00
2024-02-26T07:31:59.193Z,100.00
2024-02-26T07:35:11.977Z,100.00
2024-02-26T07:38:32.414Z,100.00
2024-02-26T07:41:55.042Z,100.00
2024-02-26T07:45:08.042Z,100.00
2024-02-26T07:48:20.797Z,100.00
2024-02-26T07:51:33.263Z,100.00
2024-02-26T07:54:45.985Z,100.00
2024-02-26T07:57:58.396Z,100.00
2024-02-26T08:01:14.755Z,100.00
2024-02-26T08:04:28.382Z,100.00
2024-02-26T08:07:43.727Z,100.00
2024-02-26T08:10:56.620Z,100.00
2024-02-26T08:14:09.122Z,100.00
2024-02-26T08:17:21.825Z,100.00
2024-02-26T08:20:34.256Z,100.00
2024-02-26T08:23:47.063Z,100.00
2024-02-26T08:26:59.582Z,100.00
2024-02-26T08:30:15.494Z,100.00
2024-02-26T08:33:28.313Z,100.00
2024-02-26T08:36:41.128Z,100.00
2024-02-26T08:39:53.685Z,100.00
2024-02-26T08:43:06.544Z,100.00
2024-02-26T08:46:19.181Z,100.00
2024-02-26T08:49:32.682Z,100.00
2024-02-26T08:52:47.412Z,100.00
2024-02-26T08:56:00.154Z,100.00
2024-02-26T08:59:12.667Z,100.00
2024-02-26T09:02:25.451Z,100.00
2024-02-26T09:05:37.888Z,100.00
2024-02-26T09:08:50.619Z,100.00
2024-02-26T09:12:03.769Z,100.00
2024-02-26T09:15:16.773Z,100.00
2024-02-26T09:18:30.569Z,100.00
2024-02-26T09:21:44.690Z,100.00
2024-02-26T09:24:57.131Z,100.00
2024-02-26T09:28:09.907Z,100.00
2024-02-26T09:31:22.303Z,100.00
2024-02-26T09:34:36.174Z,100.00
2024-02-26T09:37:50.183Z,100.00
2024-02-26T09:41:06.328Z,100.00
2024-02-26T09:44:22.349Z,100.00
2024-02-26T09:47:35.169Z,100.00
2024-02-26T09:50:48.013Z,100.00
2024-02-26T09:54:02.830Z,100.00
2024-02-26T09:57:18.115Z,100.00
2024-02-26T10:00:35.153Z,100.00
2024-02-26T10:03:51.698Z,100.00
2024-02-26T10:07:05.138Z,100.00
2024-02-26T10:10:18.713Z,100.00
2024-02-26T10:13:31.149Z,100.00
2024-02-26T10:16:47.924Z,100.00
2024-02-26T10:20:17.822Z,100.00
2024-02-26T10:23:30.726Z,100.00
2024-02-26T10:26:47.716Z,100.00
2024-02-26T10:30:20.348Z,100.00
2024-02-26T10:33:38.549Z,100.00
2024-02-26T10:36:53.765Z,100.00
2024-02-26T10:40:10.714Z,100.00
2024-02-26T10:43:23.412Z,100.00
2024-02-26T10:46:35.943Z,100.00
2024-02-26T10:49:51.351Z,100.00
2024-02-26T10:53:04.143Z,100.00
2024-02-26T10:56:16.835Z,100.00
2024-02-26T10:59:30.575Z,100.00
2024-02-26T11:02:43.278Z,100.00
2024-02-26T11:05:55.808Z,100.00
2024-02-26T11:09:09.462Z,100.00
2024-02-26T11:12:22.478Z,100.00
2024-02-26T11:15:35.471Z,100.00
2024-02-26T11:18:50.960Z,100.00
2024-02-26T11:22:15.780Z,100.00
2024-02-26T11:25:36.545Z,100.00
2024-02-26T11:28:52.588Z,100.00
2024-02-26T11:32:06.484Z,100.00
2024-02-26T11:35:19.890Z,100.00
2024-02-26T11:38:35.438Z,100.00
2024-02-26T11:41:48.297Z,100.00
2024-02-26T11:45:02.179Z,100.00
2024-02-26T11:48:16.431Z,100.00
2024-02-26T11:51:29.635Z,100.00
2024-02-26T11:54:58.173Z,100.00
2024-02-26T11:58:10.834Z,100.00
2024-02-26T12:01:40.208Z,100.00
2024-02-26T12:04:53.071Z,100.00
2024-02-26T12:08:09.161Z,100.00
2024-02-26T12:11:22.844Z,100.00
2024-02-26T12:14:43.229Z,100.00
2024-02-26T12:17:57.153Z,100.00
2024-02-26T12:21:15.938Z,100.00
2024-02-26T12:24:30.011Z,100.00
2024-02-26T12:27:43.720Z,100.00
2024-02-26T12:30:56.501Z,100.00
2024-02-26T12:34:11.145Z,100.00
2024-02-26T12:37:23.934Z,100.00
2024-02-26T12:40:36.545Z,100.00
2024-02-26T12:43:52.171Z,100.00
2024-02-26T12:47:05.423Z,100.00
2024-02-26T12:50:19.509Z,100.00
2024-02-26T12:53:32.941Z,100.00
2024-02-26T12:56:45.863Z,100.00
2024-02-26T12:59:58.491Z,100.00
2024-02-26T13:03:11.252Z,100.00
2024-02-26T13:06:24.420Z,97.74
2024-02-26T13:09:37.433Z,97.58
2024-02-26T13:12:56.570Z,100.00
2024-02-26T13:16:15.375Z,99.46
2024-02-26T13:19:29.259Z,97.84
2024-02-26T13:22:42.038Z,98.29
2024-02-26T13:25:57.515Z,95.87
2024-02-26T13:29:10.188Z,95.93
2024-02-26T13:32:22.584Z,94.68
2024-02-26T13:35:36.193Z,94.82
2024-02-26T13:38:56.026Z,93.07
2024-02-26T13:42:09.116Z,92.83
2024-02-26T13:45:21.607Z,90.12
2024-02-26T13:48:34.459Z,94.18
2024-02-26T13:51:47.007Z,88.76
2024-02-26T13:55:00.574Z,93.96
2024-02-26T13:58:14.747Z,93.85
2024-02-26T14:01:27.591Z,91.99
2024-02-26T14:04:40.383Z,87.10
2024-02-26T14:07:54.239Z,88.34
2024-02-26T14:11:07.305Z,85.74
2024-02-26T14:14:19.776Z,85.47
2024-02-26T14:17:32.450Z,81.75
2024-02-26T14:20:45.775Z,85.01
2024-02-26T14:23:58.505Z,85.82
2024-02-26T14:27:11.698Z,83.72
2024-02-26T14:30:24.530Z,84.77
2024-02-26T14:33:39.953Z,88.82
2024-02-26T14:36:52.743Z,88.50
2024-02-26T14:40:06.987Z,86.99
2024-02-26T14:43:19.646Z,86.44
2024-02-26T14:46:32.112Z,87.97
2024-02-26T14:49:44.860Z,83.63
2024-02-26T14:52:57.350Z,83.42
2024-02-26T14:56:10.647Z,85.91
2024-02-26T14:59:23.062Z,87.14
2024-02-26T15:02:35.756Z,89.04
2024-02-26T15:05:48.211Z,90.88
2024-02-26T15:09:01.924Z,92.29
2024-02-26T15:12:19.053Z,94.48
2024-02-26T15:15:32.546Z,97.72
2024-02-26T15:18:45.090Z,98.08
2024-02-26T15:21:57.976Z,98.38
2024-02-26T15:25:12.918Z,100.00
2024-02-26T15:28:29.884Z,100.00
2024-02-26T15:31:43.025Z,100.00
2024-02-26T15:34:56.094Z,100.00
2024-02-26T15:38:08.596Z,100.00
2024-02-26T15:41:21.309Z,100.00
2024-02-26T15:44:33.717Z,100.00
2024-02-26T15:47:48.806Z,100.00
2024-02-26T15:51:01.325Z,100.00
2024-02-26T15:54:14.076Z,100.00
2024-02-26T15:57:26.493Z,100.00
2024-02-26T16:00:43.248Z,100.00
2024-02-26T16:03:57.091Z,100.00
2024-02-26T16:07:14.152Z,100.00
2024-02-26T16:10:28.699Z,100.00
2024-02-26T16:13:41.263Z,100.00
2024-02-26T16:17:35.122Z,100.00
2024-02-26T16:20:48.450Z,100.00
2024-02-26T16:24:01.536Z,100.00
2024-02-26T16:27:14.291Z,100.00
2024-02-26T16:30:26.960Z,100.00
2024-02-26T16:33:39.879Z,100.00
2024-02-26T16:36:52.627Z,100.00
2024-02-26T16:40:06.175Z,100.00
2024-02-26T16:43:18.893Z,100.00
2024-02-26T16:46:31.352Z,100.00
2024-02-26T16:49:44.167Z,100.00
2024-02-26T16:52:56.928Z,100.00
2024-02-26T16:56:12.512Z,100.00
2024-02-26T16:59:29.315Z,100.00
2024-02-26T17:02:42.447Z,100.00
2024-02-26T17:05:54.946Z,100.00
2024-02-26T17:09:09.192Z,100.00
2024-02-26T17:12:23.446Z,100.00
2024-02-26T17:15:36.948Z,100.00
2024-02-26T17:18:49.454Z,100.00
2024-02-26T17:22:02.188Z,100.00
2024-02-26T17:25:15.066Z,100.00
2024-02-26T17:28:27.705Z,100.00
2024-02-26T17:31:43.625Z,100.00
2024-02-26T17:34:56.828Z,100.00
2024-02-26T17:38:09.377Z,100.00
2024-02-26T17:41:23.435Z,100.00
2024-02-26T17:44:37.712Z,100.00
2024-02-26T17:47:52.029Z,100.00
2024-02-26T17:51:07.169Z,100.00
2024-02-26T17:54:20.132Z,100.00
2024-02-26T17:57:32.712Z,100.00
2024-02-26T18:00:47.668Z,100.00
2024-02-26T18:04:00.490Z,100.00
2024-02-26T18:07:14.219Z,100.00
2024-02-26T18:10:26.958Z,100.00
2024-02-26T18:13:42.596Z,100.00
2024-02-26T18:16:55.274Z,100.00
2024-02-26T18:20:09.357Z,100.00
2024-02-26T18:23:21.989Z,100.00
2024-02-26T18:26:35.225Z,100.00
2024-02-26T18:29:47.921Z,100.00
2024-02-26T18:33:00.623Z,100.00
2024-02-26T18:36:13.721Z,100.00
2024-02-26T18:39:26.318Z,100.00
2024-02-26T18:42:40.700Z,100.00
2024-02-26T18:45:53.286Z,100.00
2024-02-26T18:49:06.056Z,100.00
2024-02-26T18:52:18.466Z,100.00
2024-02-26T18:55:31.347Z,100.00
2024-02-26T18:58:44.065Z,100.00
2024-02-26T19:01:56.764Z,100.00
2024-02-26T19:05:09.358Z,100.00
2024-02-26T19:08:22.228Z,100.00
2024-02-26T19:11:34.714Z,100.00
2024-02-26T19:14:47.441Z,100.00
2024-02-26T19:18:01.694Z,100.00
2024-02-26T19:21:14.504Z,100.00
2024-02-26T19:24:26.979Z,100.00
2024-02-26T19:27:39.776Z,100.00
2024-02-26T19:30:52.252Z,100.00
2024-02-26T19:34:05.123Z,100.00
2024-02-26T19:37:17.597Z,100.00
2024-02-26T19:40:30.523Z,100.00
2024-02-26T19:43:42.920Z,100.00
2024-02-26T19:46:55.593Z,100.00
2024-02-26T19:50:08.785Z,100.00
2024-02-26T19:53:21.785Z,100.00
2024-02-26T19:56:35.791Z,100.00
2024-02-26T19:59:48.418Z,100.00
2024-02-26T20:03:00.845Z,100.00
2024-02-26T20:06:14.936Z,100.00
2024-02-26T20:09:31.408Z,100.00
2024-02-26T20:12:44.383Z,100.00
2024-02-26T20:15:56.839Z,100.00
2024-02-26T20:19:10.430Z,100.00
2024-02-26T20:22:22.876Z,100.00
2024-02-26T20:25:36.477Z,100.00
2024-02-26T20:28:48.893Z,100.00
2024-02-26T20:32:01.600Z,100.00
2024-02-26T20:35:14.048Z,100.00
2024-02-26T20:38:26.703Z,100.00
2024-02-26T20:41:39.151Z,100.00
2024-02-26T20:44:52.253Z,100.00
2024-02-26T20:48:05.210Z,100.00
2024-02-26T20:51:18.033Z,100.00
2024-02-26T20:54:30.574Z,100.00
2024-02-26T20:57:43.974Z,100.00
2024-02-26T21:00:57.435Z,100.00
2024-02-26T21:04:10.178Z,100.00
2024-02-26T21:07:22.704Z,100.00
2024-02-26T21:10:35.686Z,100.00
2024-02-26T21:13:48.178Z,100.00
2024-02-26T21:17:00.892Z,100.00
2024-02-26T21:20:15.685Z,100.00
2024-02-26T21:23:28.512Z,100.00
2024-02-26T21:26:40.977Z,100.00
2024-02-26T21:29:53.716Z,100.00
2024-02-26T21:33:06.136Z,100.00
2024-02-26T21:36:19.156Z,100.00
2024-02-26T21:39:31.658Z,100.00
2024-02-26T21:42:44.384Z,100.00
2024-02-26T21:45:56.747Z,100.00
2024-02-26T21:49:09.500Z,100.00
2024-02-26T21:52:21.930Z,100.00
2024-02-26T21:55:35.123Z,100.00
2024-02-26T21:58:47.846Z,100.00
2024-02-26T22:02:00.563Z,100.00
2024-02-26T22:05:13.209Z,100.00
2024-02-26T22:08:25.849Z,100.00
2024-02-26T22:11:41.566Z,100.00
2024-02-26T22:14:54.230Z,100.00
2024-02-26T22:18:07.513Z,100.00
2024-02-26T22:21:19.877Z,100.00
2024-02-26T22:24:32.592Z,100.00
2024-02-26T22:27:47.021Z,100.00
2024-02-26T22:30:59.678Z,100.00
2024-02-26T22:34:12.215Z,100.00
2024-02-26T22:37:24.998Z,100.00
2024-02-26T22:40:37.897Z,100.00
2024-02-26T22:43:50.552Z,100.00
2024-02-26T22:47:02.931Z,100.00
2024-02-26T22:50:15.896Z,100.00
2024-02-26T22:53:28.265Z,100.00
2024-02-26T22:56:40.914Z,100.00
2024-02-26T22:59:53.338Z,100.00
2024-02-26T23:03:06.195Z,100.00
2024-02-26T23:06:18.729Z,100.00
2024-02-26T23:09:31.470Z,100.00
2024-02-26T23:12:44.006Z,100.00
2024-02-26T23:15:56.713Z,100.00
2024-02-26T23:19:09.135Z,100.00
2024-02-26T23:22:21.892Z,100.00
2024-02-26T23:25:34.685Z,100.00
2024-02-26T23:28:47.544Z,100.00
2024-02-26T23:31:59.944Z,100.00
2024-02-26T23:35:12.762Z,100.00
2024-02-26T23:38:25.197Z,100.00
2024-02-26T23:41:38.350Z,100.00
2024-02-26T23:44:52.617Z,100.00
2024-02-26T23:48:05.882Z,100.00
2024-02-26T23:51:18.390Z,100.00
2024-02-26T23:54:31.291Z,100.00
2024-02-26T23:57:43.747Z,100.00
